createdAt,value
2023-02-13T00:01:27.983Z,-3.08
2023-02-13T00:04:00.624Z,-3.01
2023-02-13T00:06:32.060Z,-3.01
2023-02-13T00:09:01.097Z,-3.03
2023-02-13T00:11:29.949Z,-3.05
2023-02-13T00:13:58.946Z,-3.08
2023-02-13T00:16:28.134Z,-3.12
2023-02-13T00:19:03.085Z,-3.15
2023-02-13T00:21:36.426Z,-3.20
2023-02-13T00:24:06.226Z,-3.24
2023-02-13T00:26:34.644Z,-3.29
2023-02-13T00:29:07.559Z,-3.33
2023-02-13T00:31:37.037Z,-3.38
2023-02-13T00:34:05.925Z,-3.41
2023-02-13T00:36:35.838Z,-3.42
2023-02-13T00:39:04.098Z,-3.45
2023-02-13T00:41:33.422Z,-3.46
2023-02-13T00:44:01.582Z,-3.48
2023-02-13T00:46:32.809Z,-3.49
2023-02-13T00:49:01.139Z,-3.50
2023-02-13T00:51:29.741Z,-3.50
2023-02-13T00:54:00.254Z,-3.50
2023-02-13T00:56:28.449Z,-3.50
2023-02-13T00:58:59.759Z,-3.51
2023-02-13T01:01:27.939Z,-3.50
2023-02-13T01:05:57.350Z,-3.49
2023-02-13T01:08:28.487Z,-3.51
2023-02-13T01:10:57.511Z,-3.48
2023-02-13T01:13:26.807Z,-3.33
2023-02-13T01:15:59.829Z,-3.18
2023-02-13T01:18:31.848Z,-3.16
2023-02-13T01:21:03.905Z,-3.17
2023-02-13T01:23:34.261Z,-3.17
2023-02-13T01:26:06.191Z,-3.18
2023-02-13T01:28:34.792Z,-3.22
2023-02-13T01:31:03.309Z,-3.24
2023-02-13T01:33:39.493Z,-3.25
2023-02-13T01:36:12.724Z,-3.27
2023-02-13T01:38:42.838Z,-3.30
2023-02-13T01:41:11.777Z,-3.32
2023-02-13T01:43:53.602Z,-3.35
2023-02-13T01:46:43.126Z,-3.37
2023-02-13T01:49:18.706Z,-3.39
2023-02-13T01:51:48.434Z,-3.24
2023-02-13T01:54:23.303Z,-3.18
2023-02-13T01:56:54.839Z,-3.21
2023-02-13T01:59:30.990Z,-3.25
2023-02-13T02:01:59.192Z,-3.29
2023-02-13T02:04:36.144Z,-3.32
2023-02-13T02:07:21.174Z,-3.37
2023-02-13T02:09:52.052Z,-3.39
2023-02-13T02:12:52.401Z,-3.43
2023-02-13T02:15:21.393Z,-3.45
2023-02-13T02:17:50.049Z,-3.31
2023-02-13T02:20:21.704Z,-3.19
2023-02-13T02:23:23.366Z,-3.20
2023-02-13T02:26:35.586Z,-3.24
2023-02-13T02:29:34.664Z,-3.26
2023-02-13T02:32:08.800Z,-3.28
2023-02-13T02:35:01.946Z,-3.31
2023-02-13T02:37:35.204Z,-3.33
2023-02-13T02:40:10.915Z,-3.37
2023-02-13T02:42:39.216Z,-3.38
2023-02-13T02:45:24.851Z,-3.24
2023-02-13T02:48:14.304Z,-3.15
2023-02-13T02:50:50.226Z,-3.17
2023-02-13T02:53:39.399Z,-3.20
2023-02-13T02:56:21.005Z,-3.23
2023-02-13T02:59:11.857Z,-3.23
2023-02-13T03:01:58.949Z,-3.23
2023-02-13T03:04:54.364Z,-3.24
2023-02-13T03:07:22.392Z,-3.24
2023-02-13T03:10:12.357Z,-3.09
2023-02-13T03:13:10.909Z,-3.02
2023-02-13T03:16:00.426Z,-3.07
2023-02-13T03:18:50.512Z,-3.11
2023-02-13T03:22:18.692Z,-3.16
2023-02-13T03:24:50.566Z,-3.24
2023-02-13T03:27:55.857Z,-3.29
2023-02-13T03:30:30.597Z,-3.26
2023-02-13T03:33:04.891Z,-3.13
2023-02-13T03:36:04.065Z,-3.15
2023-02-13T03:38:38.640Z,-3.22
2023-02-13T03:41:21.163Z,-3.26
2023-02-13T03:43:55.227Z,-3.30
2023-02-13T03:46:23.395Z,-3.33
2023-02-13T03:49:11.808Z,-3.37
2023-02-13T03:51:45.047Z,-3.28
2023-02-13T03:54:17.615Z,-3.18
2023-02-13T03:57:05.738Z,-3.22
2023-02-13T03:59:35.697Z,-3.26
2023-02-13T04:02:14.745Z,-3.30
2023-02-13T04:05:03.117Z,-3.35
2023-02-13T04:07:32.341Z,-3.35
2023-02-13T04:10:09.172Z,-3.22
2023-02-13T04:12:41.944Z,-3.19
2023-02-13T04:15:15.247Z,-3.23
2023-02-13T04:17:50.177Z,-3.26
2023-02-13T04:20:19.142Z,-3.28
2023-02-13T04:22:48.182Z,-3.27
2023-02-13T04:25:17.016Z,-3.15
2023-02-13T04:27:45.210Z,-3.08
2023-02-13T04:30:14.278Z,-3.11
2023-02-13T04:32:43.803Z,-3.15
2023-02-13T04:35:13.908Z,-3.19
2023-02-13T04:37:42.090Z,-3.22
2023-02-13T04:40:11.081Z,-3.13
2023-02-13T04:42:40.775Z,-3.07
2023-02-13T04:45:12.829Z,-3.08
2023-02-13T04:47:41.309Z,-3.07
2023-02-13T04:50:10.192Z,-3.05
2023-02-13T04:52:38.235Z,-3.00
2023-02-13T04:55:06.597Z,-2.84
2023-02-13T04:57:35.323Z,-2.71
2023-02-13T05:00:05.252Z,-2.68
2023-02-13T05:02:35.593Z,-2.65
2023-02-13T05:05:05.106Z,-2.63
2023-02-13T05:07:35.864Z,-2.62
2023-02-13T05:10:06.997Z,-2.62
2023-02-13T05:12:35.537Z,-2.54
2023-02-13T05:15:07.612Z,-2.41
2023-02-13T05:17:37.727Z,-2.39
2023-02-13T05:20:07.156Z,-2.38
2023-02-13T05:22:54.966Z,-2.38
2023-02-13T05:25:23.441Z,-2.40
2023-02-13T05:27:51.475Z,-2.42
2023-02-13T05:30:20.348Z,-2.43
2023-02-13T05:32:50.830Z,-2.33
2023-02-13T05:35:19.300Z,-2.30
2023-02-13T05:37:47.302Z,-2.33
2023-02-13T05:40:15.416Z,-2.36
2023-02-13T05:42:43.881Z,-2.37
2023-02-13T05:45:12.063Z,-2.38
2023-02-13T05:47:40.228Z,-2.26
2023-02-13T05:50:09.732Z,-2.14
2023-02-13T05:52:38.334Z,-2.14
2023-02-13T05:55:07.719Z,-2.15
2023-02-13T05:57:38.112Z,-2.13
2023-02-13T06:00:07.285Z,-2.09
2023-02-13T06:02:36.836Z,-2.07
2023-02-13T06:05:05.139Z,-2.00
2023-02-13T06:07:34.310Z,-1.87
2023-02-13T06:10:02.404Z,-1.82
2023-02-13T06:12:31.611Z,-1.82
2023-02-13T06:14:59.506Z,-1.82
2023-02-13T06:17:27.458Z,-1.82
2023-02-13T06:19:55.617Z,-1.81
2023-02-13T06:22:23.582Z,-1.74
2023-02-13T06:24:52.530Z,-1.60
2023-02-13T06:27:20.515Z,-1.54
2023-02-13T06:29:48.689Z,-1.54
2023-02-13T06:32:16.744Z,-1.55
2023-02-13T06:34:45.107Z,-1.53
2023-02-13T06:37:13.216Z,-1.51
2023-02-13T06:39:42.953Z,-1.48
2023-02-13T06:42:10.971Z,-1.40
2023-02-13T06:44:40.096Z,-1.26
2023-02-13T06:47:08.057Z,-1.24
2023-02-13T06:49:36.463Z,-1.26
2023-02-13T06:52:04.798Z,-1.28
2023-02-13T06:54:46.346Z,-1.27
2023-02-13T06:57:16.776Z,-1.20
2023-02-13T06:59:45.892Z,-1.06
2023-02-13T07:02:14.468Z,-0.85
2023-02-13T07:04:44.218Z,-0.75
2023-02-13T07:07:12.734Z,-0.72
2023-02-13T07:09:41.555Z,-0.66
2023-02-13T07:12:10.276Z,-0.59
2023-02-13T07:14:38.358Z,-0.53
2023-02-13T07:17:06.377Z,-0.49
2023-02-13T07:19:34.585Z,-0.46
2023-02-13T07:22:03.035Z,-0.33
2023-02-13T07:24:33.992Z,-0.27
2023-02-13T07:27:01.996Z,-0.26
2023-02-13T07:29:34.276Z,-0.27
2023-02-13T07:32:02.527Z,-0.24
2023-02-13T07:34:33.580Z,-0.22
2023-02-13T07:37:02.354Z,-0.21
2023-02-13T07:39:31.875Z,-0.18
2023-02-13T07:41:59.908Z,-0.14
2023-02-13T07:44:27.886Z,-0.02
2023-02-13T07:46:56.001Z,0.07
2023-02-13T07:49:24.541Z,0.05
2023-02-13T07:51:52.696Z,0.03
2023-02-13T07:54:21.489Z,0.00
2023-02-13T07:56:50.074Z,-0.01
2023-02-13T07:59:18.256Z,0.02
2023-02-13T08:01:46.398Z,0.09
2023-02-13T08:04:14.512Z,0.19
2023-02-13T08:06:44.003Z,0.43
2023-02-13T08:09:38.862Z,0.60
2023-02-13T08:12:08.719Z,0.73
2023-02-13T08:14:37.928Z,0.83
2023-02-13T08:17:11.117Z,0.90
2023-02-13T08:19:41.442Z,0.92
2023-02-13T08:22:14.073Z,0.89
2023-02-13T08:24:46.485Z,0.85
2023-02-13T08:27:17.086Z,0.81
2023-02-13T08:29:45.530Z,0.78
2023-02-13T08:32:13.775Z,0.74
2023-02-13T08:34:42.592Z,0.68
2023-02-13T08:37:10.793Z,0.69
2023-02-13T08:39:38.851Z,0.73
2023-02-13T08:42:10.321Z,0.68
2023-02-13T08:44:42.626Z,0.64
2023-02-13T08:47:10.600Z,0.60
2023-02-13T08:49:39.924Z,0.55
2023-02-13T08:52:09.781Z,0.50
2023-02-13T08:54:38.565Z,0.42
2023-02-13T08:57:06.929Z,0.33
2023-02-13T08:59:36.019Z,0.36
2023-02-13T09:02:04.032Z,0.37
2023-02-13T09:04:32.539Z,0.29
2023-02-13T09:07:00.564Z,0.23
2023-02-13T09:09:29.789Z,0.18
2023-02-13T09:11:58.149Z,0.14
2023-02-13T09:14:27.098Z,0.11
2023-02-13T09:16:55.315Z,0.17
2023-02-13T09:19:23.518Z,0.27
2023-02-13T09:21:51.734Z,0.27
2023-02-13T09:24:19.697Z,0.22
2023-02-13T09:26:48.003Z,0.17
2023-02-13T09:29:16.196Z,0.16
2023-02-13T09:31:44.453Z,0.13
2023-02-13T09:34:12.978Z,0.18
2023-02-13T09:36:41.863Z,0.22
2023-02-13T09:39:10.155Z,0.18
2023-02-13T09:41:42.879Z,0.15
2023-02-13T09:44:33.796Z,0.16
2023-02-13T09:47:14.778Z,0.24
2023-02-13T09:49:46.668Z,0.41
2023-02-13T09:52:17.925Z,0.47
2023-02-13T09:54:46.241Z,0.44
2023-02-13T09:57:35.312Z,0.40
2023-02-13T10:00:13.946Z,0.39
2023-02-13T10:02:57.318Z,0.49
2023-02-13T10:05:48.723Z,0.60
2023-02-13T10:08:24.187Z,0.62
2023-02-13T10:10:53.266Z,0.60
2023-02-13T10:13:33.713Z,0.59
2023-02-13T10:16:02.098Z,0.61
2023-02-13T10:19:13.408Z,0.71
2023-02-13T10:21:48.528Z,0.76
2023-02-13T10:24:34.589Z,0.74
2023-02-13T10:27:09.520Z,0.72
2023-02-13T10:30:01.226Z,0.75
2023-02-13T10:32:43.080Z,0.90
2023-02-13T10:35:31.813Z,0.96
2023-02-13T10:37:59.946Z,0.99
2023-02-13T10:40:32.469Z,1.04
2023-02-13T10:43:07.662Z,1.13
2023-02-13T10:45:38.780Z,1.33
2023-02-13T10:48:20.159Z,1.44
2023-02-13T10:51:20.881Z,1.53
2023-02-13T10:54:24.824Z,1.66
2023-02-13T10:57:18.275Z,1.90
2023-02-13T11:00:06.030Z,2.00
2023-02-13T11:02:38.146Z,2.04
2023-02-13T11:05:14.795Z,2.14
2023-02-13T11:08:01.653Z,2.23
2023-02-13T11:10:33.457Z,2.32
2023-02-13T11:13:15.832Z,2.39
2023-02-13T11:15:57.473Z,2.37
2023-02-13T11:18:28.801Z,2.28
2023-02-13T11:21:10.124Z,2.22
2023-02-13T11:23:43.226Z,2.15
2023-02-13T11:26:15.547Z,2.19
2023-02-13T11:28:56.915Z,2.18
2023-02-13T11:31:30.043Z,2.08
2023-02-13T11:33:59.394Z,2.05
2023-02-13T11:36:30.190Z,2.03
2023-02-13T11:39:07.870Z,2.12
2023-02-13T11:41:42.072Z,2.27
2023-02-13T11:44:23.192Z,2.34
2023-02-13T11:46:53.604Z,2.37
2023-02-13T11:49:35.288Z,2.37
2023-02-13T11:52:05.269Z,2.32
2023-02-13T11:54:42.847Z,2.37
2023-02-13T11:57:28.841Z,2.41
2023-02-13T11:59:57.319Z,2.37
2023-02-13T12:02:30.269Z,2.29
2023-02-13T12:05:15.052Z,2.26
2023-02-13T12:07:43.443Z,2.33
2023-02-13T12:10:34.052Z,2.43
2023-02-13T12:13:15.002Z,2.40
2023-02-13T12:15:43.483Z,2.34
2023-02-13T12:18:33.155Z,2.27
2023-02-13T12:21:32.462Z,2.28
2023-02-13T12:24:06.467Z,2.28
2023-02-13T12:26:56.461Z,2.20
2023-02-13T12:29:51.992Z,2.12
2023-02-13T12:32:30.220Z,2.19
2023-02-13T12:35:19.368Z,2.21
2023-02-13T12:38:22.748Z,2.19
2023-02-13T12:41:07.627Z,2.17
2023-02-13T12:44:15.936Z,2.19
2023-02-13T12:47:03.147Z,2.24
2023-02-13T12:49:45.445Z,2.23
2023-02-13T12:52:31.842Z,2.21
2023-02-13T12:55:21.593Z,2.22
2023-02-13T12:57:59.304Z,2.32
2023-02-13T13:00:35.301Z,2.36
2023-02-13T13:03:41.672Z,2.33
2023-02-13T13:06:30.182Z,2.30
2023-02-13T13:09:21.262Z,2.40
2023-02-13T13:12:22.918Z,2.42
2023-02-13T13:15:08.460Z,2.39
2023-02-13T13:18:40.320Z,2.41
2023-02-13T13:24:11.953Z,2.49
2023-02-13T13:26:41.666Z,2.42
2023-02-13T13:29:15.370Z,2.47
2023-02-13T13:31:54.531Z,2.49
2023-02-13T13:34:24.371Z,2.45
2023-02-13T13:36:57.770Z,2.40
2023-02-13T13:39:51.799Z,2.40
2023-02-13T13:42:40.550Z,2.46
2023-02-13T13:45:19.995Z,2.41
2023-02-13T13:47:52.913Z,2.33
2023-02-13T13:50:24.037Z,2.30
2023-02-13T13:53:15.828Z,2.35
2023-02-13T13:55:47.288Z,2.36
2023-02-13T13:58:21.310Z,2.30
2023-02-13T14:01:22.910Z,2.25
2023-02-13T14:03:54.964Z,2.27
2023-02-13T14:06:28.541Z,2.29
2023-02-13T14:09:02.142Z,2.23
2023-02-13T14:11:36.990Z,2.17
2023-02-13T14:14:30.180Z,2.15
2023-02-13T14:17:03.338Z,2.19
2023-02-13T14:19:31.841Z,2.17
2023-02-13T14:22:24.167Z,2.12
2023-02-13T14:24:55.223Z,2.10
2023-02-13T14:27:30.464Z,2.15
2023-02-13T14:29:58.237Z,2.15
2023-02-13T14:32:33.785Z,2.10
2023-02-13T14:35:17.505Z,2.08
2023-02-13T14:37:53.382Z,2.14
2023-02-13T14:40:21.916Z,2.15
2023-02-13T14:43:20.048Z,2.12
2023-02-13T14:45:59.660Z,2.05
2023-02-13T14:48:48.092Z,2.02
2023-02-13T14:51:27.949Z,2.10
2023-02-13T14:53:58.295Z,2.11
2023-02-13T14:56:27.790Z,2.04
2023-02-13T14:59:07.094Z,1.99
2023-02-13T15:02:09.025Z,1.97
2023-02-13T15:05:06.363Z,2.09
2023-02-13T15:07:35.512Z,2.08
2023-02-13T15:10:52.973Z,2.00
2023-02-13T15:13:36.657Z,1.97
2023-02-13T15:16:08.408Z,2.05
2023-02-13T15:18:38.877Z,2.05
2023-02-13T15:21:06.367Z,2.03
2023-02-13T15:23:33.446Z,2.01
2023-02-13T15:26:09.444Z,2.01
2023-02-13T15:28:36.305Z,2.11
2023-02-13T15:31:06.087Z,2.14
2023-02-13T15:33:45.498Z,2.09
2023-02-13T15:36:17.752Z,2.01
2023-02-13T15:38:47.098Z,2.04
2023-02-13T15:41:39.480Z,2.11
2023-02-13T15:44:07.677Z,2.08
2023-02-13T15:46:41.887Z,2.02
2023-02-13T15:49:23.434Z,1.99
2023-02-13T15:51:51.159Z,2.06
2023-02-13T15:54:26.158Z,2.11
2023-02-13T15:56:55.409Z,2.08
2023-02-13T15:59:22.108Z,2.06
2023-02-13T16:01:50.891Z,2.12
2023-02-13T16:04:22.389Z,2.18
2023-02-13T16:07:11.135Z,2.13
2023-02-13T16:09:43.058Z,2.08
2023-02-13T16:12:23.556Z,2.14
2023-02-13T16:14:59.441Z,2.21
2023-02-13T16:17:29.621Z,2.18
2023-02-13T16:20:04.261Z,2.13
2023-02-13T16:23:02.493Z,2.17
2023-02-13T16:25:42.959Z,2.24
2023-02-13T16:28:22.781Z,2.20
2023-02-13T16:30:59.435Z,2.15
2023-02-13T16:33:41.424Z,2.21
2023-02-13T16:36:08.342Z,2.22
2023-02-13T16:38:36.159Z,2.18
2023-02-13T16:41:24.422Z,2.13
2023-02-13T16:44:05.775Z,2.20
2023-02-13T16:46:42.798Z,2.23
2023-02-13T16:49:09.552Z,2.17
2023-02-13T16:51:58.026Z,2.13
2023-02-13T16:54:33.069Z,2.21
2023-02-13T16:57:17.964Z,2.25
2023-02-13T16:59:52.733Z,2.20
2023-02-13T17:02:22.301Z,2.18
2023-02-13T17:04:51.348Z,2.28
2023-02-13T17:07:29.484Z,2.37
2023-02-13T17:09:59.871Z,2.37
2023-02-13T17:12:33.994Z,2.32
2023-02-13T17:15:01.900Z,2.31
2023-02-13T17:17:30.352Z,2.39
2023-02-13T17:19:58.680Z,2.43
2023-02-13T17:22:30.543Z,2.40
2023-02-13T17:25:00.262Z,2.35
2023-02-13T17:27:27.829Z,2.30
2023-02-13T17:29:57.819Z,2.36
2023-02-13T17:32:27.255Z,2.39
2023-02-13T17:34:54.066Z,2.35
2023-02-13T17:37:23.637Z,2.30
2023-02-13T17:39:51.290Z,2.31
2023-02-13T17:42:25.846Z,2.38
2023-02-13T17:44:55.448Z,2.40
2023-02-13T17:47:24.593Z,2.34
2023-02-13T17:49:55.153Z,2.34
2023-02-13T17:52:25.949Z,2.42
2023-02-13T17:54:53.233Z,2.48
2023-02-13T17:57:21.140Z,2.44
2023-02-13T17:59:50.339Z,2.41
2023-02-13T18:02:27.456Z,2.43
2023-02-13T18:04:54.661Z,2.55
2023-02-13T18:10:25.437Z,2.66
2023-02-13T18:12:53.511Z,2.61
2023-02-13T18:15:21.042Z,2.57
2023-02-13T18:17:52.170Z,2.63
2023-02-13T18:20:22.955Z,2.72
2023-02-13T18:22:50.343Z,2.72
2023-02-13T18:25:18.283Z,2.69
2023-02-13T18:27:44.960Z,2.64
2023-02-13T18:30:14.034Z,2.66
2023-02-13T18:32:40.981Z,2.71
2023-02-13T18:35:07.921Z,2.66
2023-02-13T18:37:34.844Z,2.61
2023-02-13T18:40:01.541Z,2.59
2023-02-13T18:42:30.630Z,2.66
2023-02-13T18:45:00.140Z,2.65
2023-02-13T18:47:28.158Z,2.61
2023-02-13T18:49:55.330Z,2.60
2023-02-13T18:52:22.534Z,2.68
2023-02-13T18:54:49.613Z,2.73
2023-02-13T18:57:16.869Z,2.69
2023-02-13T18:59:45.156Z,2.64
2023-02-13T19:02:12.127Z,2.62
2023-02-13T19:04:39.946Z,2.70
2023-02-13T19:07:06.969Z,2.76
2023-02-13T19:09:39.812Z,2.72
2023-02-13T19:12:07.520Z,2.67
2023-02-13T19:14:34.525Z,2.63
2023-02-13T19:17:02.606Z,2.69
2023-02-13T19:19:29.896Z,2.77
2023-02-13T19:21:57.784Z,2.76
2023-02-13T19:24:24.792Z,2.71
2023-02-13T19:26:54.311Z,2.66
2023-02-13T19:29:21.882Z,2.72
2023-02-13T19:31:51.808Z,2.78
2023-02-13T19:34:18.793Z,2.74
2023-02-13T19:36:45.692Z,2.69
2023-02-13T19:39:13.263Z,2.68
2023-02-13T19:41:40.062Z,2.75
2023-02-13T19:44:08.061Z,2.84
2023-02-13T19:46:36.207Z,2.83
2023-02-13T19:49:03.396Z,2.75
2023-02-13T19:51:31.439Z,2.70
2023-02-13T19:54:00.473Z,2.77
2023-02-13T19:56:28.712Z,2.83
2023-02-13T19:58:55.636Z,2.83
2023-02-13T20:01:25.148Z,2.79
2023-02-13T20:03:52.639Z,2.75
2023-02-13T20:06:38.302Z,2.82
2023-02-13T20:09:11.092Z,2.88
2023-02-13T20:11:41.730Z,2.84
2023-02-13T20:14:13.917Z,2.79
2023-02-13T20:16:45.318Z,2.79
2023-02-13T20:19:15.541Z,2.86
2023-02-13T20:21:42.591Z,2.91
2023-02-13T20:24:09.755Z,2.88
2023-02-13T20:26:37.037Z,2.84
2023-02-13T20:29:04.189Z,2.83
2023-02-13T20:31:33.104Z,2.90
2023-02-13T20:34:00.767Z,2.95
2023-02-13T20:36:28.986Z,2.94
2023-02-13T20:39:00.617Z,2.95
2023-02-13T20:41:29.121Z,2.96
2023-02-13T20:44:04.084Z,3.07
2023-02-13T20:46:31.865Z,3.17
2023-02-13T20:48:59.134Z,3.17
2023-02-13T20:51:25.745Z,3.13
2023-02-13T20:53:53.782Z,3.10
2023-02-13T20:56:22.205Z,3.09
2023-02-13T20:58:54.710Z,3.15
2023-02-13T21:01:27.958Z,3.23
2023-02-13T21:03:56.120Z,3.20
2023-02-13T21:06:30.449Z,3.17
2023-02-13T21:09:01.254Z,3.14
2023-02-13T21:11:34.914Z,3.17
2023-02-13T21:14:02.146Z,3.20
2023-02-13T21:16:30.936Z,3.19
2023-02-13T21:18:59.679Z,3.14
2023-02-13T21:21:32.582Z,3.11
2023-02-13T21:24:02.672Z,3.20
2023-02-13T21:26:36.474Z,3.28
2023-02-13T21:29:03.984Z,3.25
2023-02-13T21:31:32.995Z,3.20
2023-02-13T21:34:02.557Z,3.16
2023-02-13T21:36:33.807Z,3.20
2023-02-13T21:39:04.682Z,3.25
2023-02-13T21:41:31.535Z,3.22
2023-02-13T21:44:01.056Z,3.19
2023-02-13T21:46:30.671Z,3.19
2023-02-13T21:49:02.391Z,3.27
2023-02-13T21:51:30.650Z,3.29
2023-02-13T21:53:57.496Z,3.25
2023-02-13T21:56:30.070Z,3.21
2023-02-13T21:58:56.823Z,3.21
2023-02-13T22:01:34.551Z,3.27
2023-02-13T22:04:03.067Z,3.32
2023-02-13T22:06:30.813Z,3.29
2023-02-13T22:08:58.885Z,3.24
2023-02-13T22:11:26.300Z,3.19
2023-02-13T22:13:56.009Z,3.24
2023-02-13T22:16:23.545Z,3.29
2023-02-13T22:18:50.392Z,3.25
2023-02-13T22:21:19.381Z,3.20
2023-02-13T22:23:46.407Z,3.16
2023-02-13T22:26:28.065Z,3.16
2023-02-13T22:28:57.748Z,3.27
2023-02-13T22:31:25.970Z,3.27
2023-02-13T22:34:09.614Z,3.23
2023-02-13T22:36:38.382Z,3.19
2023-02-13T22:39:06.310Z,3.18
2023-02-13T22:41:33.207Z,3.27
2023-02-13T22:44:00.872Z,3.31
2023-02-13T22:46:29.319Z,3.30
2023-02-13T22:48:56.054Z,3.26
2023-02-13T22:51:24.823Z,3.25
2023-02-13T22:53:53.823Z,3.24
2023-02-13T22:56:24.001Z,3.35
2023-02-13T22:58:53.018Z,3.44
2023-02-13T23:01:20.742Z,3.44
2023-02-13T23:03:47.684Z,3.43
2023-02-13T23:06:15.951Z,3.40
2023-02-13T23:08:44.894Z,3.38
2023-02-13T23:11:32.097Z,3.43
2023-02-13T23:13:59.288Z,3.48
2023-02-13T23:16:26.549Z,3.46
2023-02-13T23:18:56.552Z,3.43
2023-02-13T23:21:24.195Z,3.42
2023-02-13T23:23:51.059Z,3.45
2023-02-13T23:26:18.468Z,3.53
2023-02-13T23:28:45.215Z,3.53
2023-02-13T23:31:12.341Z,3.47
2023-02-13T23:33:39.716Z,3.43
2023-02-13T23:36:07.029Z,3.41
2023-02-13T23:38:34.158Z,3.47
2023-02-13T23:41:08.079Z,3.55
2023-02-13T23:43:35.460Z,3.55
2023-02-13T23:46:06.816Z,3.51
2023-02-13T23:48:34.051Z,3.48
2023-02-13T23:51:02.650Z,3.46
2023-02-13T23:53:29.311Z,3.52
2023-02-13T23:55:56.271Z,3.57
2023-02-13T23:58:23.900Z,3.54
